Time;durP1;ratioP1;P1;durP2;ratioP2;P2;SDS_P1;SDS_P2;PMS_P1;PMS_P2;Temp;Humidity;BMP_temperature;BMP_pressure;BME280_temperature;BME280_humidity;BME280_pressure;Samples;Min_cycle;Max_cycle;Signal;HPM_P1;HPM_P2
2022/07/21 00:01:11;;;;;;;7.60;2.63;;;;;;;;;;5063922;28;20138;-69
2022/07/21 00:03:37;;;;;;;7.20;2.50;;;;;;;;;;5059860;28;20020;-69
2022/07/21 00:06:03;;;;;;;7.43;3.17;;;;;;;;;;5067103;28;20029;-69
2022/07/21 00:08:30;;;;;;;8.32;2.65;;;;;;;;;;5060079;28;20032;-69
2022/07/21 00:10:56;;;;;;;8.55;2.83;;;;;;;;;;5063183;28;20063;-69
2022/07/21 00:13:22;;;;;;;11.15;2.92;;;;;;;;;;5064597;28;20060;-69
2022/07/21 00:15:49;;;;;;;4.70;2.20;;;;;;;;;;5069101;28;20020;-69
2022/07/21 00:18:17;;;;;;;7.43;2.45;;;;;;;;;;5061246;28;20059;-69
2022/07/21 00:20:43;;;;;;;8.85;2.85;;;;;;;;;;5067331;28;20024;-69
2022/07/21 00:23:09;;;;;;;8.88;2.22;;;;;;;;;;5066218;28;20037;-69
2022/07/21 00:25:35;;;;;;;6.72;2.53;;;;;;;;;;5068807;28;20082;-69
2022/07/21 00:28:03;;;;;;;6.72;2.72;;;;;;;;;;5068468;28;20098;-69
2022/07/21 00:30:29;;;;;;;10.73;2.75;;;;;;;;;;5069947;28;20131;-69
2022/07/21 00:32:55;;;;;;;7.18;2.22;;;;;;;;;;5061839;28;20032;-68
2022/07/21 00:35:22;;;;;;;3.40;2.17;;;;;;;;;;5071411;28;20043;-68
2022/07/21 00:37:48;;;;;;;8.27;2.30;;;;;;;;;;5057313;28;20029;-68
2022/07/21 00:40:15;;;;;;;8.88;2.30;;;;;;;;;;5066733;28;20078;-68
2022/07/21 00:42:42;;;;;;;8.00;2.60;;;;;;;;;;5068684;28;20488;-68
2022/07/21 00:45:09;;;;;;;7.90;2.28;;;;;;;;;;5071321;28;20508;-68
2022/07/21 00:47:35;;;;;;;3.92;2.00;;;;;;;;;;5059132;28;20039;-68
2022/07/21 00:50:03;;;;;;;6.70;2.63;;;;;;;;;;5062074;28;20063;-68
2022/07/21 00:52:29;;;;;;;7.22;2.05;;;;;;;;;;5066620;28;20032;-68
2022/07/21 00:54:55;;;;;;;6.15;2.20;;;;;;;;;;5067465;28;20450;-68
2022/07/21 00:57:21;;;;;;;7.18;2.35;;;;;;;;;;5068400;28;20679;-68
2022/07/21 00:59:47;;;;;;;7.15;2.17;;;;;;;;;;5063687;28;20372;-68
2022/07/21 01:02:14;;;;;;;5.82;2.45;;;;;;;;;;5067120;28;20032;-68
2022/07/21 01:04:40;;;;;;;7.78;2.72;;;;;;;;;;5063748;28;20120;-68
2022/07/21 01:07:07;;;;;;;7.88;3.17;;;;;;;;;;5063442;28;20032;-68
2022/07/21 01:09:34;;;;;;;9.75;2.58;;;;;;;;;;5064337;28;20023;-68
2022/07/21 01:12:01;;;;;;;13.35;2.30;;;;;;;;;;5067777;28;20043;-70
2022/07/21 01:14:27;;;;;;;5.38;1.95;;;;;;;;;;5068771;28;20028;-69
2022/07/21 01:16:54;;;;;;;5.22;2.33;;;;;;;;;;5071355;28;20069;-69
2022/07/21 01:19:20;;;;;;;4.32;2.13;;;;;;;;;;5065540;28;20573;-68
2022/07/21 01:21:47;;;;;;;7.53;2.58;;;;;;;;;;5074258;28;20382;-67
2022/07/21 01:24:13;;;;;;;5.28;1.77;;;;;;;;;;5069595;28;20031;-68
2022/07/21 01:26:41;;;;;;;9.13;2.50;;;;;;;;;;5074186;28;20119;-68
2022/07/21 01:29:08;;;;;;;5.95;2.40;;;;;;;;;;5071218;28;20199;-68
2022/07/21 01:31:35;;;;;;;4.25;2.22;;;;;;;;;;5069226;28;21634;-69
2022/07/21 01:34:01;;;;;;;7.65;2.78;;;;;;;;;;5069440;28;20446;-69
2022/07/21 01:36:27;;;;;;;6.60;2.47;;;;;;;;;;5070106;28;20118;-69
2022/07/21 01:41:38;;;;;;;5.43;2.00;;;;;;;;;;5062356;28;20036;-69
2022/07/21 01:44:06;;;;;;;5.85;2.55;;;;;;;;;;5046465;28;20789;-71
2022/07/21 01:46:35;;;;;;;4.40;2.35;;;;;;;;;;5071142;28;20039;-70
2022/07/21 01:49:01;;;;;;;6.20;2.65;;;;;;;;;;5068665;28;20039;-70
2022/07/21 01:51:28;;;;;;;4.47;2.20;;;;;;;;;;5066389;28;20114;-68
2022/07/21 01:53:54;;;;;;;6.47;2.88;;;;;;;;;;5065060;28;20116;-68
2022/07/21 01:56:21;;;;;;;5.65;2.38;;;;;;;;;;5066152;28;20573;-71
2022/07/21 01:58:47;;;;;;;7.00;1.77;;;;;;;;;;5066989;28;20115;-70
2022/07/21 02:01:15;;;;;;;10.10;2.47;;;;;;;;;;5065965;28;20127;-68
2022/07/21 02:03:41;;;;;;;4.75;1.85;;;;;;;;;;5069710;28;20028;-68
2022/07/21 02:06:08;;;;;;;6.18;2.08;;;;;;;;;;5071559;28;20030;-69
2022/07/21 02:08:34;;;;;;;6.28;2.22;;;;;;;;;;5068774;28;20044;-69
2022/07/21 02:11:01;;;;;;;5.93;1.77;;;;;;;;;;5061522;28;20032;-69
2022/07/21 02:13:27;;;;;;;5.40;2.13;;;;;;;;;;5069409;28;20130;-71
2022/07/21 02:15:53;;;;;;;8.43;2.10;;;;;;;;;;5065740;28;20469;-71
2022/07/21 02:18:20;;;;;;;3.88;1.90;;;;;;;;;;5067588;28;20381;-71
2022/07/21 02:20:50;;;;;;;3.63;2.13;;;;;;;;;;5066303;28;20074;-68
2022/07/21 02:23:17;;;;;;;6.38;1.75;;;;;;;;;;5067611;28;20028;-69
2022/07/21 02:25:44;;;;;;;6.68;1.90;;;;;;;;;;5069029;28;20043;-68
2022/07/21 02:28:10;;;;;;;4.45;2.58;;;;;;;;;;5067031;28;20367;-69
2022/07/21 02:30:36;;;;;;;10.32;2.08;;;;;;;;;;5069687;28;20024;-69
2022/07/21 02:33:03;;;;;;;9.15;2.10;;;;;;;;;;5072561;28;20032;-69
2022/07/21 02:35:29;;;;;;;8.05;2.17;;;;;;;;;;5067770;28;20051;-69
2022/07/21 02:37:55;;;;;;;7.22;2.05;;;;;;;;;;5070612;28;20116;-69
2022/07/21 02:40:21;;;;;;;6.10;2.78;;;;;;;;;;5053430;28;20044;-68
2022/07/21 02:42:48;;;;;;;9.80;2.45;;;;;;;;;;5064813;28;20028;-69
2022/07/21 02:45:14;;;;;;;7.57;2.50;;;;;;;;;;5066675;28;20028;-69
2022/07/21 02:47:59;;;;;;;4.75;2.25;;;;;;;;;;5069312;28;20035;-69
2022/07/21 02:50:26;;;;;;;5.50;2.30;;;;;;;;;;5064066;28;20120;-70
2022/07/21 02:52:56;;;;;;;6.72;2.00;;;;;;;;;;5065057;28;20059;-69
2022/07/21 02:55:23;;;;;;;6.57;2.80;;;;;;;;;;5070539;28;20047;-69
2022/07/21 02:57:49;;;;;;;5.55;2.30;;;;;;;;;;5080604;28;20422;-69
2022/07/21 03:00:15;;;;;;;7.85;2.55;;;;;;;;;;5069274;28;20033;-69
2022/07/21 03:02:42;;;;;;;6.35;2.33;;;;;;;;;;5064926;28;20036;-69
2022/07/21 03:05:08;;;;;;;4.80;1.95;;;;;;;;;;5051429;28;20048;-68
2022/07/21 03:07:34;;;;;;;7.10;2.30;;;;;;;;;;5070272;28;20490;-70
2022/07/21 03:10:00;;;;;;;3.83;2.17;;;;;;;;;;5061036;28;20041;-70
2022/07/21 03:12:26;;;;;;;4.78;2.10;;;;;;;;;;5063406;28;20036;-70
2022/07/21 03:14:53;;;;;;;5.20;2.28;;;;;;;;;;5071479;28;20577;-71
2022/07/21 03:17:19;;;;;;;11.77;2.13;;;;;;;;;;5069513;28;20116;-70
2022/07/21 03:19:45;;;;;;;4.30;2.20;;;;;;;;;;5070089;28;20012;-69
2022/07/21 03:22:11;;;;;;;5.13;2.83;;;;;;;;;;5068038;28;20493;-69
2022/07/21 03:24:37;;;;;;;12.23;2.53;;;;;;;;;;5070983;28;20098;-71
2022/07/21 03:27:03;;;;;;;5.45;2.15;;;;;;;;;;5067021;28;20039;-71
2022/07/21 03:29:29;;;;;;;9.05;2.58;;;;;;;;;;5062830;28;20105;-71
2022/07/21 03:31:55;;;;;;;6.40;2.67;;;;;;;;;;5069901;28;20095;-71
2022/07/21 03:34:21;;;;;;;8.18;2.30;;;;;;;;;;5064242;28;20025;-71
2022/07/21 03:36:47;;;;;;;5.90;2.40;;;;;;;;;;5066113;28;20060;-71
2022/07/21 03:39:14;;;;;;;6.00;2.45;;;;;;;;;;5064993;28;20139;-71
2022/07/21 03:41:40;;;;;;;8.88;2.80;;;;;;;;;;5067795;28;20119;-71
2022/07/21 03:44:06;;;;;;;7.93;2.78;;;;;;;;;;5072738;28;20088;-69
2022/07/21 03:46:32;;;;;;;4.25;2.45;;;;;;;;;;5064794;28;21196;-69
2022/07/21 03:48:58;;;;;;;8.68;3.17;;;;;;;;;;5060207;28;20025;-69
2022/07/21 03:51:24;;;;;;;10.57;2.90;;;;;;;;;;5065465;28;20025;-69
2022/07/21 03:53:50;;;;;;;4.60;2.80;;;;;;;;;;5059799;28;20032;-70
2022/07/21 03:56:16;;;;;;;7.38;3.00;;;;;;;;;;5061998;28;20388;-70
2022/07/21 03:58:42;;;;;;;6.63;2.78;;;;;;;;;;5056965;28;20479;-68
2022/07/21 04:01:09;;;;;;;6.40;3.08;;;;;;;;;;5058191;28;20028;-68
2022/07/21 04:03:36;;;;;;;12.82;3.03;;;;;;;;;;5060754;28;20066;-70
2022/07/21 04:06:02;;;;;;;3.80;2.88;;;;;;;;;;5063521;28;20104;-69
2022/07/21 04:08:28;;;;;;;13.48;3.47;;;;;;;;;;5066468;28;20489;-70
2022/07/21 04:10:55;;;;;;;5.50;3.08;;;;;;;;;;5058198;28;20021;-69
2022/07/21 04:13:21;;;;;;;8.15;3.22;;;;;;;;;;5060540;28;20032;-69
2022/07/21 04:15:47;;;;;;;7.72;3.88;;;;;;;;;;5071737;28;20032;-68
2022/07/21 04:18:13;;;;;;;17.20;3.60;;;;;;;;;;5064186;28;20031;-68
2022/07/21 04:20:39;;;;;;;7.53;2.83;;;;;;;;;;5064919;28;20827;-68
2022/07/21 04:23:05;;;;;;;11.55;3.00;;;;;;;;;;5069931;28;20032;-68
2022/07/21 04:25:31;;;;;;;6.95;2.90;;;;;;;;;;5070125;28;20043;-68
2022/07/21 04:27:58;;;;;;;7.53;2.63;;;;;;;;;;5064836;28;20800;-68
2022/07/21 04:30:24;;;;;;;7.85;3.13;;;;;;;;;;5070835;28;20032;-68
2022/07/21 04:32:51;;;;;;;11.88;3.35;;;;;;;;;;5068668;28;20036;-68
2022/07/21 04:35:18;;;;;;;9.80;3.38;;;;;;;;;;5067496;28;20031;-69
2022/07/21 04:37:44;;;;;;;10.68;3.08;;;;;;;;;;5069875;28;20087;-69
2022/07/21 04:40:11;;;;;;;6.30;3.00;;;;;;;;;;5064523;28;20047;-69
2022/07/21 04:42:37;;;;;;;4.63;3.40;;;;;;;;;;5067041;28;20101;-69
2022/07/21 04:45:04;;;;;;;13.40;3.00;;;;;;;;;;5070889;28;20028;-67
2022/07/21 04:47:30;;;;;;;5.43;2.95;;;;;;;;;;5066264;28;20518;-67
2022/07/21 04:49:57;;;;;;;11.73;2.92;;;;;;;;;;5055300;28;20032;-67
2022/07/21 04:52:23;;;;;;;11.93;3.10;;;;;;;;;;5066192;28;20028;-67
2022/07/21 04:54:49;;;;;;;5.85;2.83;;;;;;;;;;5070330;28;20382;-67
2022/07/21 04:57:15;;;;;;;9.43;3.15;;;;;;;;;;5066969;28;20016;-67
2022/07/21 04:59:42;;;;;;;6.60;3.22;;;;;;;;;;5062028;28;20964;-67
2022/07/21 05:02:08;;;;;;;4.80;3.00;;;;;;;;;;5058062;28;20470;-67
2022/07/21 05:04:34;;;;;;;9.02;2.92;;;;;;;;;;5062015;28;20032;-66
2022/07/21 05:07:00;;;;;;;5.60;2.83;;;;;;;;;;5065419;28;20028;-67
2022/07/21 05:09:26;;;;;;;5.03;2.45;;;;;;;;;;5060864;28;20025;-67
2022/07/21 05:11:52;;;;;;;11.57;3.13;;;;;;;;;;5061276;28;20032;-67
2022/07/21 05:14:18;;;;;;;7.25;2.78;;;;;;;;;;5067600;28;20032;-67
2022/07/21 05:16:45;;;;;;;11.90;2.72;;;;;;;;;;5066527;28;20052;-67
2022/07/21 05:19:11;;;;;;;7.30;2.47;;;;;;;;;;5064030;28;20033;-67
2022/07/21 05:21:37;;;;;;;6.68;2.70;;;;;;;;;;5066206;28;20526;-67
2022/07/21 05:24:03;;;;;;;7.50;2.45;;;;;;;;;;5062121;28;20036;-67
2022/07/21 05:26:30;;;;;;;14.32;2.92;;;;;;;;;;5067207;28;20420;-67
2022/07/21 05:28:56;;;;;;;8.50;2.72;;;;;;;;;;5055576;28;20063;-67
2022/07/21 05:31:22;;;;;;;8.40;2.90;;;;;;;;;;5056617;28;20180;-67
2022/07/21 05:33:49;;;;;;;7.82;2.80;;;;;;;;;;5060859;28;20055;-67
2022/07/21 05:36:15;;;;;;;14.20;3.50;;;;;;;;;;5058925;28;20056;-67
2022/07/21 05:38:41;;;;;;;8.05;2.58;;;;;;;;;;5052885;28;20869;-67
2022/07/21 05:41:07;;;;;;;9.55;2.60;;;;;;;;;;5055406;28;20103;-67
2022/07/21 05:43:33;;;;;;;7.13;2.45;;;;;;;;;;5063623;28;20481;-67
2022/07/21 05:45:59;;;;;;;6.22;2.78;;;;;;;;;;5065048;28;20459;-67
2022/07/21 05:48:26;;;;;;;6.28;2.17;;;;;;;;;;5064447;28;20031;-67
2022/07/21 05:50:52;;;;;;;7.75;2.33;;;;;;;;;;5063791;28;20490;-67
2022/07/21 05:53:18;;;;;;;6.75;2.53;;;;;;;;;;5068536;28;20052;-67
2022/07/21 05:55:44;;;;;;;8.45;2.60;;;;;;;;;;5072950;28;20031;-67
2022/07/21 05:58:11;;;;;;;6.03;2.30;;;;;;;;;;5071602;28;20023;-67
2022/07/21 06:00:38;;;;;;;5.88;2.45;;;;;;;;;;5070878;28;20035;-67
2022/07/21 06:03:04;;;;;;;6.03;2.70;;;;;;;;;;5068742;28;20029;-67
2022/07/21 06:05:30;;;;;;;6.00;1.83;;;;;;;;;;5064202;28;20126;-67
2022/07/21 06:07:57;;;;;;;9.15;2.00;;;;;;;;;;5066660;28;20028;-67
2022/07/21 06:10:23;;;;;;;9.05;2.40;;;;;;;;;;5064602;28;20033;-70
2022/07/21 06:12:49;;;;;;;8.00;1.98;;;;;;;;;;5064162;28;20026;-67
2022/07/21 06:15:21;;;;;;;9.07;2.50;;;;;;;;;;5078291;28;20390;-67
2022/07/21 06:17:47;;;;;;;7.72;1.92;;;;;;;;;;5066304;28;20021;-66
2022/07/21 06:20:13;;;;;;;5.82;2.85;;;;;;;;;;5073210;28;20059;-67
2022/07/21 06:22:40;;;;;;;9.00;1.92;;;;;;;;;;5065283;28;20021;-67
2022/07/21 06:25:06;;;;;;;4.78;2.15;;;;;;;;;;5061218;28;20051;-72
2022/07/21 06:27:32;;;;;;;5.85;1.77;;;;;;;;;;5061124;28;20056;-67
2022/07/21 06:29:59;;;;;;;5.45;1.67;;;;;;;;;;5062725;28;20037;-67
2022/07/21 06:32:25;;;;;;;5.28;1.70;;;;;;;;;;5062530;28;20098;-66
2022/07/21 06:34:51;;;;;;;8.13;1.67;;;;;;;;;;5061582;28;20029;-70
2022/07/21 06:37:17;;;;;;;5.28;2.00;;;;;;;;;;5070335;28;20141;-70
2022/07/21 06:39:44;;;;;;;9.70;1.80;;;;;;;;;;5064898;28;20390;-70
2022/07/21 06:42:10;;;;;;;4.22;1.85;;;;;;;;;;5063870;28;20485;-70
2022/07/21 06:44:36;;;;;;;5.20;1.67;;;;;;;;;;5066620;28;20024;-70
2022/07/21 06:47:04;;;;;;;11.40;2.40;;;;;;;;;;5067626;28;20055;-70
2022/07/21 06:49:33;;;;;;;5.13;1.63;;;;;;;;;;5057120;28;20070;-70
2022/07/21 06:52:00;;;;;;;5.93;1.70;;;;;;;;;;5059878;28;20486;-70
2022/07/21 06:54:26;;;;;;;4.07;1.52;;;;;;;;;;5062734;28;21736;-71
2022/07/21 06:56:52;;;;;;;6.57;1.30;;;;;;;;;;5064338;28;20042;-70
2022/07/21 06:59:19;;;;;;;5.93;1.65;;;;;;;;;;5059761;28;20462;-72
2022/07/21 07:01:45;;;;;;;3.25;1.27;;;;;;;;;;5053079;28;20102;-69
2022/07/21 07:04:11;;;;;;;7.47;1.80;;;;;;;;;;5062120;28;20051;-69
2022/07/21 07:06:37;;;;;;;5.45;1.45;;;;;;;;;;5062333;28;20493;-69
2022/07/21 07:09:03;;;;;;;5.68;1.73;;;;;;;;;;5058831;28;20446;-69
2022/07/21 07:11:29;;;;;;;5.47;1.40;;;;;;;;;;5070255;28;20024;-69
2022/07/21 07:13:56;;;;;;;6.88;2.42;;;;;;;;;;5062846;28;20112;-69
2022/07/21 07:16:22;;;;;;;9.45;2.45;;;;;;;;;;5068637;28;20409;-68
2022/07/21 07:18:48;;;;;;;4.05;1.65;;;;;;;;;;5064725;28;20112;-69
2022/07/21 07:21:14;;;;;;;2.08;1.27;;;;;;;;;;5062844;28;20024;-69
2022/07/21 07:23:40;;;;;;;3.25;1.30;;;;;;;;;;5063045;28;20040;-69
2022/07/21 07:26:07;;;;;;;5.85;1.55;;;;;;;;;;5058576;28;20035;-69
2022/07/21 07:28:33;;;;;;;7.15;1.52;;;;;;;;;;5058998;28;20041;-69
2022/07/21 07:31:00;;;;;;;5.95;1.25;;;;;;;;;;5065984;28;20508;-70
2022/07/21 07:33:27;;;;;;;11.05;1.75;;;;;;;;;;5064162;28;20082;-70
2022/07/21 07:35:56;;;;;;;5.30;1.40;;;;;;;;;;5064688;28;20127;-70
2022/07/21 07:38:22;;;;;;;7.40;1.50;;;;;;;;;;5064835;28;20029;-70
2022/07/21 07:40:48;;;;;;;4.30;1.52;;;;;;;;;;5062127;28;20505;-70
2022/07/21 07:43:14;;;;;;;6.28;1.50;;;;;;;;;;5061911;28;20036;-69
2022/07/21 07:45:40;;;;;;;5.43;1.50;;;;;;;;;;5061598;28;20028;-69
2022/07/21 07:48:06;;;;;;;3.83;1.23;;;;;;;;;;5060867;28;20501;-69
2022/07/21 07:50:32;;;;;;;4.63;1.63;;;;;;;;;;5065118;28;20741;-69
2022/07/21 07:52:59;;;;;;;4.25;1.30;;;;;;;;;;5062370;28;20580;-69
2022/07/21 07:55:25;;;;;;;7.95;1.58;;;;;;;;;;5068820;28;20029;-69
2022/07/21 07:57:51;;;;;;;3.50;1.55;;;;;;;;;;5067080;28;20028;-69
2022/07/21 08:00:18;;;;;;;6.85;1.67;;;;;;;;;;5067882;28;20356;-69
2022/07/21 08:02:45;;;;;;;4.13;1.67;;;;;;;;;;5062299;28;20482;-69
2022/07/21 08:05:11;;;;;;;4.45;1.70;;;;;;;;;;5066023;28;20029;-69
2022/07/21 08:07:38;;;;;;;7.68;1.80;;;;;;;;;;5060130;28;20040;-69
2022/07/21 08:10:08;;;;;;;5.18;1.60;;;;;;;;;;5062126;28;20028;-69
2022/07/21 08:12:35;;;;;;;2.42;1.30;;;;;;;;;;5064075;28;20032;-69
2022/07/21 08:15:02;;;;;;;3.65;1.25;;;;;;;;;;5059043;28;20025;-69
2022/07/21 08:17:28;;;;;;;5.30;1.58;;;;;;;;;;5060886;28;20512;-69
2022/07/21 08:19:54;;;;;;;3.47;1.50;;;;;;;;;;5055896;28;21587;-69
2022/07/21 08:22:20;;;;;;;5.75;1.75;;;;;;;;;;5058049;28;20413;-69
2022/07/21 08:24:46;;;;;;;6.88;1.70;;;;;;;;;;5061597;28;20032;-69
2022/07/21 08:27:12;;;;;;;4.95;1.60;;;;;;;;;;5060538;28;20040;-69
2022/07/21 08:29:39;;;;;;;5.47;1.80;;;;;;;;;;5064006;28;20173;-69
2022/07/21 08:32:05;;;;;;;4.10;1.40;;;;;;;;;;5060596;28;20495;-69
2022/07/21 08:34:31;;;;;;;7.35;1.58;;;;;;;;;;5061540;28;20055;-69
2022/07/21 08:36:57;;;;;;;6.13;1.50;;;;;;;;;;5063048;28;20161;-69
2022/07/21 08:39:24;;;;;;;8.25;1.63;;;;;;;;;;5058754;28;20021;-69
2022/07/21 08:41:51;;;;;;;4.63;1.40;;;;;;;;;;5059997;28;20139;-69
2022/07/21 08:44:17;;;;;;;8.23;1.60;;;;;;;;;;5066381;28;20039;-69
2022/07/21 08:46:43;;;;;;;7.00;1.58;;;;;;;;;;5059724;28;20086;-69
2022/07/21 08:49:10;;;;;;;4.50;1.60;;;;;;;;;;5058512;28;20031;-69
2022/07/21 08:51:37;;;;;;;5.35;1.60;;;;;;;;;;5062088;28;20039;-69
2022/07/21 08:54:03;;;;;;;5.35;1.77;;;;;;;;;;5061823;28;20055;-69
2022/07/21 08:56:30;;;;;;;7.45;2.83;;;;;;;;;;5060979;28;20055;-69
2022/07/21 08:58:56;;;;;;;6.00;1.60;;;;;;;;;;5066541;28;20025;-69
2022/07/21 09:01:23;;;;;;;5.60;1.75;;;;;;;;;;5065061;28;20478;-69
2022/07/21 09:03:50;;;;;;;7.53;1.42;;;;;;;;;;5047271;28;20044;-69
2022/07/21 09:06:16;;;;;;;2.40;1.38;;;;;;;;;;5060874;28;20109;-69
2022/07/21 09:08:47;;;;;;;3.38;1.25;;;;;;;;;;5061328;28;20028;-69
2022/07/21 09:11:20;;;;;;;4.63;0.98;;;;;;;;;;5064477;28;20028;-70
2022/07/21 09:13:51;;;;;;;10.63;2.33;;;;;;;;;;5060858;28;20033;-69
2022/07/21 09:16:38;;;;;;;6.10;1.23;;;;;;;;;;5057647;28;20029;-69
2022/07/21 09:19:05;;;;;;;5.30;1.30;;;;;;;;;;5058060;28;20030;-69
2022/07/21 09:21:32;;;;;;;10.60;1.65;;;;;;;;;;5065316;28;20072;-69
2022/07/21 09:24:16;;;;;;;4.75;1.33;;;;;;;;;;5056054;28;20607;-69
2022/07/21 09:27:03;;;;;;;4.53;1.83;;;;;;;;;;5069990;28;20507;-69
2022/07/21 09:29:35;;;;;;;6.30;1.45;;;;;;;;;;5062497;28;20048;-69
2022/07/21 09:32:22;;;;;;;3.83;1.30;;;;;;;;;;5068846;28;20500;-69
2022/07/21 09:34:49;;;;;;;13.18;2.50;;;;;;;;;;5054301;28;20044;-69
2022/07/21 09:37:16;;;;;;;3.60;1.70;;;;;;;;;;5072565;28;20056;-69
2022/07/21 09:39:42;;;;;;;4.72;1.48;;;;;;;;;;5068744;28;20037;-69
2022/07/21 09:42:28;;;;;;;4.97;1.42;;;;;;;;;;5070862;28;20052;-69
2022/07/21 09:45:02;;;;;;;7.78;1.70;;;;;;;;;;5067254;28;20036;-69
2022/07/21 09:47:30;;;;;;;6.82;1.42;;;;;;;;;;5062122;28;20505;-70
2022/07/21 09:49:57;;;;;;;4.05;1.50;;;;;;;;;;5068643;28;20039;-69
2022/07/21 09:52:25;;;;;;;4.63;1.33;;;;;;;;;;5069075;28;20028;-69
2022/07/21 09:54:52;;;;;;;4.75;1.80;;;;;;;;;;5054080;28;20035;-69
2022/07/21 09:57:19;;;;;;;3.45;1.42;;;;;;;;;;5064266;28;20263;-69
2022/07/21 09:59:46;;;;;;;4.40;1.80;;;;;;;;;;5064780;28;20013;-69
2022/07/21 10:02:31;;;;;;;4.30;1.40;;;;;;;;;;5061890;28;20490;-69
2022/07/21 10:05:14;;;;;;;3.97;1.50;;;;;;;;;;5067290;28;20029;-69
2022/07/21 10:07:40;;;;;;;;;;;;;;;;;;5067394;28;20036;-69
2022/07/21 10:10:07;;;;;;;7.32;1.45;;;;;;;;;;5064140;28;19925;-69
2022/07/21 10:12:33;;;;;;;7.30;1.40;;;;;;;;;;5069835;28;20514;-69
2022/07/21 10:15:00;;;;;;;4.65;1.20;;;;;;;;;;5073358;28;20502;-70
2022/07/21 10:17:26;;;;;;;4.03;1.13;;;;;;;;;;5068827;28;20424;-69
2022/07/21 10:19:57;;;;;;;6.32;1.35;;;;;;;;;;5061555;28;20062;-69
2022/07/21 10:22:29;;;;;;;5.90;1.27;;;;;;;;;;5067490;28;20494;-69
2022/07/21 10:24:55;;;;;;;9.45;1.60;;;;;;;;;;5066594;28;20033;-69
2022/07/21 10:27:21;;;;;;;7.30;1.40;;;;;;;;;;5072872;28;20051;-69
2022/07/21 10:29:48;;;;;;;4.07;1.50;;;;;;;;;;5066958;28;20801;-69
2022/07/21 10:32:18;;;;;;;6.03;1.65;;;;;;;;;;5063386;28;20058;-69
2022/07/21 10:34:44;;;;;;;2.97;1.30;;;;;;;;;;5063662;28;20056;-69
2022/07/21 10:37:10;;;;;;;5.70;1.40;;;;;;;;;;5068076;28;20094;-69
2022/07/21 10:39:39;;;;;;;2.10;1.20;;;;;;;;;;5066439;28;20034;-69
2022/07/21 10:42:15;;;;;;;4.97;1.60;;;;;;;;;;5066446;28;20106;-69
2022/07/21 10:44:43;;;;;;;3.95;1.83;;;;;;;;;;5071779;28;20060;-69
2022/07/21 10:47:10;;;;;;;5.22;1.60;;;;;;;;;;5069151;28;20029;-69
2022/07/21 10:49:49;;;;;;;3.85;1.40;;;;;;;;;;5066116;28;20415;-69
2022/07/21 10:52:45;;;;;;;3.75;1.65;;;;;;;;;;5071257;28;20040;-69
2022/07/21 10:55:11;;;;;;;8.63;1.73;;;;;;;;;;5056817;28;20063;-69
2022/07/21 10:57:38;;;;;;;4.22;1.60;;;;;;;;;;5062441;28;20036;-69
2022/07/21 11:00:21;;;;;;;4.60;2.10;;;;;;;;;;5068952;28;20056;-69
2022/07/21 11:02:47;;;;;;;;;;;;;;;;;;5061616;28;20024;-69
2022/07/21 11:05:13;;;;;;;3.97;1.48;;;;;;;;;;5057351;28;20370;-69
2022/07/21 11:07:58;;;;;;;8.20;1.55;;;;;;;;;;5056658;28;20067;-69
2022/07/21 11:10:26;;;;;;;7.97;1.52;;;;;;;;;;5060081;28;20047;-75
2022/07/21 11:12:56;;;;;;;4.30;1.65;;;;;;;;;;5054709;28;20033;-69
2022/07/21 11:15:40;;;;;;;7.72;1.60;;;;;;;;;;5056855;28;20083;-69
2022/07/21 11:18:11;;;;;;;6.75;1.58;;;;;;;;;;5059150;28;20433;-69
2022/07/21 11:20:37;;;;;;;3.92;1.67;;;;;;;;;;5058666;28;20021;-69
2022/07/21 11:23:03;;;;;;;6.95;2.17;;;;;;;;;;5061403;28;20025;-68
2022/07/21 11:25:30;;;;;;;2.00;1.17;;;;;;;;;;5058870;28;20081;-69
2022/07/21 11:27:56;;;;;;;3.88;1.55;;;;;;;;;;5062561;28;20422;-68
2022/07/21 11:30:22;;;;;;;2.65;1.45;;;;;;;;;;5068081;28;20055;-69
2022/07/21 11:32:48;;;;;;;8.35;2.00;;;;;;;;;;5061361;28;20534;-68
2022/07/21 11:35:15;;;;;;;7.65;1.85;;;;;;;;;;5056574;28;20060;-68
2022/07/21 11:37:42;;;;;;;4.88;1.52;;;;;;;;;;5057091;28;20028;-69
2022/07/21 11:40:09;;;;;;;12.95;2.38;;;;;;;;;;5049442;28;20457;-68
2022/07/21 11:42:35;;;;;;;4.70;1.48;;;;;;;;;;5060963;28;20036;-68
2022/07/21 11:45:01;;;;;;;8.02;1.95;;;;;;;;;;5057959;28;20041;-68
2022/07/21 11:47:28;;;;;;;4.47;1.63;;;;;;;;;;5060252;28;20426;-68
2022/07/21 11:49:55;;;;;;;4.05;1.70;;;;;;;;;;5062478;28;20079;-68
2022/07/21 11:52:26;;;;;;;4.30;1.38;;;;;;;;;;5059473;28;20095;-68
2022/07/21 11:54:53;;;;;;;5.05;1.35;;;;;;;;;;5058743;28;20563;-68
2022/07/21 11:57:21;;;;;;;4.95;1.50;;;;;;;;;;5059941;28;20406;-68
2022/07/21 11:59:48;;;;;;;5.75;1.60;;;;;;;;;;5059905;28;20032;-68
2022/07/21 12:02:15;;;;;;;4.63;1.90;;;;;;;;;;5058329;28;20066;-68
2022/07/21 12:04:42;;;;;;;5.80;1.92;;;;;;;;;;5059747;28;20043;-68
2022/07/21 12:07:13;;;;;;;6.05;2.10;;;;;;;;;;5058447;28;20028;-68
2022/07/21 12:09:40;;;;;;;6.85;2.10;;;;;;;;;;5057465;28;20505;-68
2022/07/21 12:12:06;;;;;;;2.92;1.50;;;;;;;;;;5059398;28;20032;-68
2022/07/21 12:14:50;;;;;;;3.97;2.00;;;;;;;;;;5057187;28;20115;-68
2022/07/21 12:17:32;;;;;;;6.88;2.00;;;;;;;;;;5056747;28;20436;-68
2022/07/21 12:19:58;;;;;;;6.68;2.75;;;;;;;;;;5058883;28;20098;-68
2022/07/21 12:22:46;;;;;;;4.47;1.60;;;;;;;;;;5058252;28;20502;-69
2022/07/21 12:25:13;;;;;;;7.45;1.85;;;;;;;;;;5059565;28;20029;-68
2022/07/21 12:27:40;;;;;;;7.28;2.13;;;;;;;;;;5058239;28;20056;-68
2022/07/21 12:30:08;;;;;;;8.45;2.28;;;;;;;;;;5064467;28;20163;-68
2022/07/21 12:32:38;;;;;;;5.82;1.90;;;;;;;;;;5059346;28;20028;-69
2022/07/21 12:35:05;;;;;;;4.95;1.80;;;;;;;;;;5064719;28;20520;-69
2022/07/21 12:37:49;;;;;;;7.30;2.10;;;;;;;;;;5060973;28;20024;-69
2022/07/21 12:40:16;;;;;;;9.38;2.05;;;;;;;;;;5058746;28;20024;-69
2022/07/21 12:42:42;;;;;;;7.40;1.77;;;;;;;;;;5055381;28;20033;-69
2022/07/21 12:45:14;;;;;;;4.63;1.90;;;;;;;;;;5058205;28;20166;-69
2022/07/21 12:47:40;;;;;;;4.75;1.70;;;;;;;;;;5057719;28;20020;-69
2022/07/21 12:50:14;;;;;;;4.65;1.95;;;;;;;;;;5058380;28;20025;-69
2022/07/21 12:52:41;;;;;;;4.85;2.00;;;;;;;;;;5063764;28;20033;-69
2022/07/21 12:55:07;;;;;;;7.25;1.98;;;;;;;;;;5068321;28;20721;-69
2022/07/21 12:57:34;;;;;;;3.80;1.80;;;;;;;;;;5069254;28;20021;-68
2022/07/21 13:00:00;;;;;;;5.60;2.50;;;;;;;;;;5068742;28;20036;-69
2022/07/21 13:02:28;;;;;;;9.15;2.10;;;;;;;;;;5067498;28;20040;-68
2022/07/21 13:04:55;;;;;;;4.18;1.38;;;;;;;;;;5069488;28;20033;-69
2022/07/21 13:07:21;;;;;;;8.25;1.80;;;;;;;;;;5068010;28;20029;-69
2022/07/21 13:09:47;;;;;;;6.35;1.92;;;;;;;;;;5071467;28;20119;-69
2022/07/21 13:12:13;;;;;;;4.45;1.42;;;;;;;;;;5072547;28;20039;-69
2022/07/21 13:14:40;;;;;;;3.35;1.48;;;;;;;;;;5074455;28;20540;-68
2022/07/21 13:17:07;;;;;;;4.63;1.33;;;;;;;;;;5069127;28;20470;-68
2022/07/21 13:19:35;;;;;;;4.22;1.23;;;;;;;;;;5070970;28;20100;-66
2022/07/21 13:22:02;;;;;;;4.32;1.95;;;;;;;;;;5071283;28;20104;-63
2022/07/21 13:24:28;;;;;;;1.92;1.17;;;;;;;;;;5071173;28;20398;-64
2022/07/21 13:26:54;;;;;;;5.20;1.60;;;;;;;;;;5073532;28;20474;-64
2022/07/21 13:29:20;;;;;;;6.75;1.80;;;;;;;;;;5071348;28;20028;-64
2022/07/21 13:31:47;;;;;;;4.97;1.50;;;;;;;;;;5068811;28;20063;-63
2022/07/21 13:34:13;;;;;;;3.95;1.35;;;;;;;;;;5069751;28;20078;-63
2022/07/21 13:36:39;;;;;;;6.78;1.35;;;;;;;;;;5071266;28;20035;-63
2022/07/21 13:39:06;;;;;;;6.35;1.42;;;;;;;;;;5072015;28;20020;-63
2022/07/21 13:41:32;;;;;;;4.68;1.58;;;;;;;;;;5068642;28;20025;-63
2022/07/21 13:43:59;;;;;;;4.43;1.48;;;;;;;;;;5071649;28;20389;-63
2022/07/21 13:46:25;;;;;;;7.22;1.80;;;;;;;;;;5070838;28;20032;-63
2022/07/21 13:48:51;;;;;;;5.57;1.70;;;;;;;;;;5069886;28;20036;-64
2022/07/21 13:51:18;;;;;;;7.95;1.80;;;;;;;;;;5065896;28;20329;-63
2022/07/21 13:53:45;;;;;;;9.23;1.85;;;;;;;;;;5071393;28;20468;-63
2022/07/21 13:56:12;;;;;;;4.75;1.83;;;;;;;;;;5071110;28;20024;-63
2022/07/21 13:58:38;;;;;;;6.82;1.40;;;;;;;;;;5087485;28;20028;-62
2022/07/21 14:01:05;;;;;;;5.80;1.85;;;;;;;;;;5070237;28;20024;-61
2022/07/21 14:03:32;;;;;;;6.47;2.00;;;;;;;;;;5065682;28;20044;-62
2022/07/21 14:05:58;;;;;;;9.38;1.55;;;;;;;;;;5067209;28;20021;-61
2022/07/21 14:08:24;;;;;;;8.20;1.65;;;;;;;;;;5072642;28;20158;-61
2022/07/21 14:10:50;;;;;;;8.27;1.83;;;;;;;;;;5072631;28;20028;-62
2022/07/21 14:13:17;;;;;;;7.88;1.70;;;;;;;;;;5083825;28;20028;-61
2022/07/21 14:15:43;;;;;;;14.65;1.77;;;;;;;;;;5071230;28;20032;-64
2022/07/21 14:18:09;;;;;;;6.80;2.28;;;;;;;;;;5071176;28;20024;-62
2022/07/21 14:20:35;;;;;;;6.22;2.05;;;;;;;;;;5070181;28;20074;-62
2022/07/21 14:23:01;;;;;;;6.55;2.08;;;;;;;;;;5071046;28;20030;-62
2022/07/21 14:25:27;;;;;;;4.70;1.88;;;;;;;;;;5070915;28;20037;-61
2022/07/21 14:27:55;;;;;;;6.45;1.80;;;;;;;;;;5070530;28;20040;-62
2022/07/21 14:30:21;;;;;;;4.07;1.67;;;;;;;;;;5071671;28;20036;-62
2022/07/21 14:32:48;;;;;;;3.22;1.80;;;;;;;;;;5066120;28;20033;-61
2022/07/21 14:35:16;;;;;;;3.67;1.85;;;;;;;;;;5072012;28;20082;-61
2022/07/21 14:37:43;;;;;;;6.30;2.30;;;;;;;;;;5072715;28;20048;-61
2022/07/21 14:40:10;;;;;;;8.75;1.70;;;;;;;;;;5071743;28;20512;-61
2022/07/21 14:42:36;;;;;;;6.13;1.75;;;;;;;;;;5069200;28;20051;-61
2022/07/21 14:45:03;;;;;;;5.25;1.75;;;;;;;;;;5070400;28;20024;-61
2022/07/21 14:47:30;;;;;;;3.63;1.60;;;;;;;;;;5067564;28;20128;-66